Time;durP1;ratioP1;P1;durP2;ratioP2;P2;SDS_P1;SDS_P2;PMS_P1;PMS_P2;Temp;Humidity;BMP_temperature;BMP_pressure;BME280_temperature;BME280_humidity;BME280_pressure;Samples;Min_cycle;Max_cycle;Signal;HPM_P1;HPM_P2
2022/07/05 00:01:41;;;;;;;11.88;5.12;;;;;;;17.48;87.28;100797.95;1632541;85;21098;-82
2022/07/05 00:04:08;;;;;;;12.18;6.20;;;;;;;17.42;87.14;100795.67;1632425;86;21129;-82
2022/07/05 00:06:35;;;;;;;12.80;5.58;;;;;;;17.37;87.05;100802.55;1632452;85;21027;-81
2022/07/05 00:09:03;;;;;;;10.63;5.33;;;;;;;17.33;86.89;100805.86;1632347;86;21118;-81
2022/07/05 00:11:30;;;;;;;11.43;4.80;;;;;;;17.29;86.59;100802.15;1632383;86;21083;-81
2022/07/05 00:13:57;;;;;;;9.40;5.53;;;;;;;17.24;86.30;100803.77;1632620;85;21062;-82
2022/07/05 00:16:24;;;;;;;10.63;4.87;;;;;;;17.22;86.35;100800.82;1632290;85;21762;-82
2022/07/05 00:18:51;;;;;;;10.05;5.00;;;;;;;17.17;86.20;100800.59;1632468;86;21015;-82
2022/07/05 00:21:18;;;;;;;11.12;5.65;;;;;;;17.15;86.12;100794.56;1632233;86;21595;-82
2022/07/05 00:23:46;;;;;;;14.33;5.30;;;;;;;17.12;86.29;100792.54;1632503;85;21124;-82
2022/07/05 00:26:13;;;;;;;10.23;5.60;;;;;;;17.14;86.41;100795.96;1632184;85;21058;-82
2022/07/05 00:28:40;;;;;;;11.18;5.47;;;;;;;17.14;86.37;100794.64;1632541;86;21351;-82
2022/07/05 00:31:07;;;;;;;17.23;5.67;;;;;;;17.13;86.38;100794.27;1632500;85;21058;-82
2022/07/05 00:33:34;;;;;;;10.65;5.28;;;;;;;17.10;86.16;100794.45;1632337;86;21051;-81
2022/07/05 00:36:01;;;;;;;12.60;5.57;;;;;;;17.05;85.97;100794.70;1632248;85;21059;-82
2022/07/05 00:38:28;;;;;;;10.93;5.10;;;;;;;17.00;85.92;100800.73;1632185;85;21476;-82
2022/07/05 00:40:55;;;;;;;12.90;5.40;;;;;;;16.97;86.21;100803.56;1644317;85;21068;-82
2022/07/05 00:43:22;;;;;;;16.73;5.70;;;;;;;16.98;86.23;100803.93;1663186;84;21131;-82
2022/07/05 00:45:49;;;;;;;17.62;5.90;;;;;;;16.94;86.07;100803.73;1663270;84;21088;-83
2022/07/05 00:48:16;;;;;;;12.68;5.03;;;;;;;16.92;86.24;100804.28;1663279;84;21545;-83
2022/07/05 00:50:43;;;;;;;13.70;5.58;;;;;;;16.90;86.14;100811.02;1663197;84;21094;-83
2022/07/05 00:53:11;;;;;;;16.65;5.80;;;;;;;16.90;86.19;100809.69;1663282;84;21848;-84
2022/07/05 00:55:38;;;;;;;8.73;5.17;;;;;;;16.90;86.28;100811.02;1668467;84;21034;-83
2022/07/05 00:58:05;;;;;;;9.15;4.65;;;;;;;16.92;86.44;100807.78;1668634;84;21060;-83
2022/07/05 01:00:32;;;;;;;13.00;5.20;;;;;;;16.94;86.12;100805.06;1663163;84;21068;-82
2022/07/05 01:02:59;;;;;;;13.35;5.03;;;;;;;16.94;85.85;100813.00;1663553;84;21032;-82
2022/07/05 01:05:27;;;;;;;13.48;5.35;;;;;;;16.90;85.65;100804.39;1663241;84;21137;-82
2022/07/05 01:07:55;;;;;;;9.78;4.75;;;;;;;16.92;85.77;100803.81;1668682;84;21478;-82
2022/07/05 01:10:22;;;;;;;14.53;5.33;;;;;;;16.90;85.78;100800.42;1663201;84;21067;-82
2022/07/05 01:12:49;;;;;;;15.88;5.03;;;;;;;16.91;85.79;100798.62;1640823;86;21033;-83
2022/07/05 01:15:17;;;;;;;13.93;5.47;;;;;;;16.92;85.74;100795.87;1663316;84;21080;-82
2022/07/05 01:17:44;;;;;;;14.40;5.17;;;;;;;16.93;85.71;100802.01;1668691;84;21219;-82
2022/07/05 01:20:11;;;;;;;16.52;4.95;;;;;;;16.96;86.26;100792.59;1663128;84;21037;-82
2022/07/05 01:22:59;;;;;;;9.90;4.90;;;;;;;16.96;86.26;100792.59;1663524;84;21080;-82
2022/07/05 01:25:29;;;;;;;12.75;5.08;;;;;;;17.05;86.00;100789.41;1663161;84;21080;-81
2022/07/05 01:27:59;;;;;;;11.90;4.65;;;;;;;17.07;85.74;100793.27;1663540;84;21056;-82
2022/07/05 01:30:26;;;;;;;7.85;4.40;;;;;;;17.06;85.61;100793.75;1668653;84;21145;-82
2022/07/05 01:32:53;;;;;;;8.55;4.50;;;;;;;17.10;85.74;100779.87;1663319;84;21041;-86
2022/07/05 01:35:20;;;;;;;7.15;4.33;;;;;;;17.10;85.74;100779.87;1663250;84;21048;-81
2022/07/05 01:37:49;;;;;;;10.45;4.37;;;;;;;17.17;85.91;100787.83;1668782;84;20995;-81
2022/07/05 01:40:18;;;;;;;12.82;4.12;;;;;;;17.21;85.65;100783.20;1663366;84;21099;-82
2022/07/05 01:42:46;;;;;;;9.30;5.00;;;;;;;17.22;85.38;100781.80;1640434;86;21249;-82
2022/07/05 01:45:38;;;;;;;5.95;3.58;;;;;;;17.23;85.18;100778.20;1663099;84;21021;-83
2022/07/05 01:47:48;;;;;;;9.90;4.28;;;;;;;17.24;85.09;100781.25;1664362;84;21048;-84
2022/07/05 01:50:18;;;;;;;9.93;4.10;;;;;;;17.25;84.99;100786.91;1663320;84;21068;-84
2022/07/05 01:52:48;;;;;;;19.12;4.37;;;;;;;17.26;85.08;100789.93;1668851;84;21769;-85
2022/07/05 01:55:15;;;;;;;11.00;4.53;;;;;;;17.25;84.70;100791.37;1668772;84;21143;-85
2022/07/05 01:57:42;;;;;;;8.93;4.62;;;;;;;17.26;85.00;100796.55;1663284;84;21029;-85
2022/07/05 02:00:11;;;;;;;10.80;4.22;;;;;;;17.29;85.13;100790.23;1668658;84;21012;-86
2022/07/05 02:02:42;;;;;;;9.03;3.90;;;;;;;17.33;84.84;100788.64;1663248;84;21120;-85
2022/07/05 02:05:09;;;;;;;9.15;4.10;;;;;;;17.32;84.49;100795.34;1664142;84;21123;-85
2022/07/05 02:07:36;;;;;;;10.72;3.98;;;;;;;17.31;84.56;100786.55;1668607;84;21152;-85
2022/07/05 02:10:04;;;;;;;9.78;3.75;;;;;;;17.36;84.24;100794.23;1663561;84;21554;-85
2022/07/05 02:12:32;;;;;;;8.63;4.05;;;;;;;17.36;84.17;100795.08;1663344;84;21076;-85
2022/07/05 02:14:59;;;;;;;10.38;4.17;;;;;;;17.36;84.16;100797.73;1619404;86;21055;-84
2022/07/05 02:17:26;;;;;;;11.28;4.70;;;;;;;17.38;84.09;100796.33;1668645;84;21473;-84
2022/07/05 02:19:53;;;;;;;9.18;4.37;;;;;;;17.36;83.86;100797.73;1663486;84;21100;-87
2022/07/05 02:22:20;;;;;;;12.37;4.47;;;;;;;17.32;83.76;100796.22;1668467;84;21069;-86
2022/07/05 02:24:47;;;;;;;10.60;4.45;;;;;;;17.28;83.78;100796.00;1663646;84;21041;-85
2022/07/05 02:27:20;;;;;;;12.40;5.45;;;;;;;17.29;84.03;100795.52;1667340;84;21023;-86
2022/07/05 02:29:47;;;;;;;12.37;4.78;;;;;;;17.29;83.88;100796.41;1668926;84;21008;-87
2022/07/05 02:32:15;;;;;;;7.42;3.90;;;;;;;17.31;84.08;100794.97;1663191;84;21180;-87
2022/07/05 02:34:42;;;;;;;6.37;3.77;;;;;;;17.34;84.09;100800.94;1668762;84;20966;-88
2022/07/05 02:37:10;;;;;;;9.55;4.30;;;;;;;17.34;83.72;100808.88;1668580;84;21020;-88
2022/07/05 02:39:38;;;;;;;10.00;3.65;;;;;;;17.32;83.49;100801.52;1663607;84;21040;-87
2022/07/05 02:42:05;;;;;;;11.08;4.00;;;;;;;17.30;83.29;100806.52;1640527;86;21088;-88
2022/07/05 02:44:34;;;;;;;6.80;3.52;;;;;;;17.28;83.28;100808.41;1640513;84;21143;-88
2022/07/05 02:47:02;;;;;;;12.35;3.90;;;;;;;17.28;83.39;100811.90;1663183;84;21025;-87
2022/07/05 02:49:30;;;;;;;7.08;4.05;;;;;;;17.25;83.11;100812.08;1668567;84;21071;-88
2022/07/05 02:51:57;;;;;;;9.78;4.28;;;;;;;17.22;82.97;100816.71;1663367;84;21073;-88
2022/07/05 02:54:25;;;;;;;10.38;4.17;;;;;;;17.21;83.44;100807.04;1668594;84;21003;-87
2022/07/05 02:56:53;;;;;;;12.28;3.72;;;;;;;17.25;83.60;100805.45;1668685;84;21147;-88
2022/07/05 02:59:21;;;;;;;8.38;4.60;;;;;;;17.29;83.97;100812.30;1663163;84;21060;-89
2022/07/05 03:01:49;;;;;;;10.20;4.78;;;;;;;17.31;83.92;100810.87;1668519;84;21106;-88
2022/07/05 03:04:17;;;;;;;7.97;4.00;;;;;;;17.32;84.45;100805.49;1668913;84;21055;-88
2022/07/05 03:06:46;;;;;;;6.33;4.03;;;;;;;17.35;84.61;100803.14;1662669;84;21120;-88
2022/07/05 03:09:13;;;;;;;9.53;4.37;;;;;;;17.39;84.78;100802.00;1668608;84;21956;-87
2022/07/05 03:11:41;;;;;;;8.98;4.60;;;;;;;17.40;84.88;100799.72;1663146;84;21029;-89
2022/07/05 03:14:09;;;;;;;8.35;4.50;;;;;;;17.38;84.94;100800.30;1668658;84;21078;-88
2022/07/05 03:16:36;;;;;;;8.78;4.20;;;;;;;17.33;84.91;100801.89;1663348;84;21040;-92
2022/07/05 03:19:03;;;;;;;7.55;4.90;;;;;;;17.31;85.00;100801.59;1663235;84;21044;-91
2022/07/05 03:21:30;;;;;;;7.58;4.67;;;;;;;17.33;85.49;100803.69;1668652;84;21146;-87
2022/07/05 03:23:57;;;;;;;7.58;4.28;;;;;;;17.33;85.64;100798.39;1668664;84;21008;-88
2022/07/05 03:26:25;;;;;;;6.65;4.72;;;;;;;17.35;85.49;100805.78;1663197;84;21117;-88
2022/07/05 03:28:52;;;;;;;12.23;4.60;;;;;;;17.36;85.62;100807.48;1668532;84;21055;-88
2022/07/05 03:31:19;;;;;;;6.80;4.83;;;;;;;17.39;85.34;100811.27;1663233;84;21120;-88
2022/07/05 03:33:46;;;;;;;6.67;4.53;;;;;;;17.43;85.27;100810.61;1668658;84;21912;-87
2022/07/05 03:36:13;;;;;;;8.28;4.70;;;;;;;17.45;85.32;100818.01;1663368;84;21045;-88
2022/07/05 03:38:42;;;;;;;5.85;4.28;;;;;;;17.48;85.43;100820.47;1668641;84;22022;-88
2022/07/05 03:41:09;;;;;;;9.43;4.40;;;;;;;17.48;85.22;100826.62;1665755;84;20975;-87
2022/07/05 03:43:36;;;;;;;7.55;4.78;;;;;;;17.50;85.39;100828.72;1632734;85;21088;-88
2022/07/05 03:46:04;;;;;;;7.53;4.78;;;;;;;17.50;85.53;100827.87;1632950;86;21149;-88
2022/07/05 03:48:32;;;;;;;6.85;4.80;;;;;;;17.48;85.30;100827.95;1632727;85;21085;-88
2022/07/05 03:51:00;;;;;;;8.90;4.40;;;;;;;17.47;85.50;100828.90;1632639;86;21022;-88
2022/07/05 03:53:26;;;;;;;10.43;5.12;;;;;;;17.48;85.36;100832.40;1632750;86;21069;-88
2022/07/05 03:55:53;;;;;;;5.65;4.40;;;;;;;17.47;85.45;100828.90;1633021;86;21021;-87
2022/07/05 03:58:20;;;;;;;8.03;4.97;;;;;;;17.53;85.88;100823.70;1632790;85;21130;-88
2022/07/05 04:00:48;;;;;;;12.58;5.60;;;;;;;17.58;85.93;100827.80;1632919;86;21045;-88
2022/07/05 04:03:16;;;;;;;7.33;4.50;;;;;;;17.60;85.83;100820.61;1632743;86;21123;-87
2022/07/05 04:05:44;;;;;;;7.45;4.55;;;;;;;17.63;85.96;100824.88;1633049;86;21035;-87
2022/07/05 04:08:11;;;;;;;9.25;5.45;;;;;;;17.63;85.78;100821.38;1632776;85;21104;-87
2022/07/05 04:10:40;;;;;;;13.05;5.92;;;;;;;17.64;85.78;100827.05;1632749;86;21124;-90
2022/07/05 04:13:07;;;;;;;5.80;5.00;;;;;;;17.65;86.10;100823.44;1632636;86;21060;-88
2022/07/05 04:15:34;;;;;;;6.22;4.92;;;;;;;17.66;86.03;100826.49;1633049;86;21538;-88
2022/07/05 04:18:03;;;;;;;8.23;5.20;;;;;;;17.69;85.95;100836.91;1632899;86;21104;-87
2022/07/05 04:20:32;;;;;;;7.42;5.08;;;;;;;17.72;86.21;100836.25;1632818;86;21041;-87
2022/07/05 04:22:59;;;;;;;7.62;5.20;;;;;;;17.74;86.12;100841.47;1633032;85;21184;-87
2022/07/05 04:25:27;;;;;;;8.50;5.40;;;;;;;17.75;85.98;100840.52;1633027;86;21046;-87
2022/07/05 04:27:59;;;;;;;5.53;4.85;;;;;;;17.77;86.04;100846.59;1620046;86;21113;-87
2022/07/05 04:30:27;;;;;;;8.80;4.85;;;;;;;17.79;86.01;100848.69;1633008;86;20998;-88
2022/07/05 04:32:55;;;;;;;7.85;5.17;;;;;;;17.83;86.04;100855.52;1632851;86;21160;-88
2022/07/05 04:35:23;;;;;;;7.42;5.37;;;;;;;17.85;85.88;100857.63;1632973;86;21183;-87
2022/07/05 04:37:51;;;;;;;11.60;5.37;;;;;;;17.88;85.72;100859.23;1632688;85;21084;-88
2022/07/05 04:40:18;;;;;;;5.50;4.58;;;;;;;17.93;85.68;100854.48;1632912;86;20953;-87
2022/07/05 04:42:45;;;;;;;7.62;5.15;;;;;;;17.95;85.36;100855.25;1610505;85;21180;-88
2022/07/05 04:45:14;;;;;;;8.98;4.83;;;;;;;17.98;85.29;100855.91;1632801;86;21081;-88
2022/07/05 04:47:42;;;;;;;8.65;5.22;;;;;;;18.02;85.28;100857.44;1632766;85;21157;-88
2022/07/05 04:50:09;;;;;;;7.85;5.05;;;;;;;18.05;85.34;100853.75;1632658;86;21090;-88
2022/07/05 04:52:36;;;;;;;8.28;5.22;;;;;;;18.08;85.01;100859.34;1632717;85;21081;-87
2022/07/05 04:55:04;;;;;;;6.45;4.92;;;;;;;18.08;84.87;100861.52;1632815;86;21507;-87
2022/07/05 04:57:43;;;;;;;7.03;5.22;;;;;;;18.09;84.78;100859.72;1632664;85;21096;-87
2022/07/05 05:00:13;;;;;;;8.55;5.30;;;;;;;18.12;84.61;100864.83;1632377;86;21468;-87
2022/07/05 05:02:41;;;;;;;5.40;4.90;;;;;;;18.14;84.73;100861.14;1632788;86;21562;-89
2022/07/05 05:05:09;;;;;;;5.33;4.62;;;;;;;18.18;84.69;100869.75;1632764;86;21050;-88
2022/07/05 05:07:37;;;;;;;7.53;5.75;;;;;;;18.21;84.71;100872.25;1633027;86;21121;-86
2022/07/05 05:10:06;;;;;;;8.98;4.90;;;;;;;18.25;84.82;100868.44;1632767;86;21045;-86
2022/07/05 05:12:33;;;;;;;8.58;5.22;;;;;;;18.29;84.66;100862.02;1633005;85;21113;-87
2022/07/05 05:15:00;;;;;;;8.68;5.12;;;;;;;18.34;84.56;100863.03;1632802;86;21630;-89
2022/07/05 05:17:41;;;;;;;5.62;4.97;;;;;;;18.38;84.65;100862.77;1633041;85;21102;-91
2022/07/05 05:20:17;;;;;;;8.10;5.30;;;;;;;18.41;84.47;100863.89;1632914;86;21041;-87
2022/07/05 05:22:45;;;;;;;6.42;4.95;;;;;;;18.43;84.47;100863.81;1633562;85;21116;-87
2022/07/05 05:25:12;;;;;;;8.28;5.15;;;;;;;18.48;84.50;100865.67;1632680;86;21062;-86
2022/07/05 05:27:48;;;;;;;7.83;5.08;;;;;;;18.49;84.37;100864.27;1632914;86;21499;-87
2022/07/05 05:30:19;;;;;;;7.90;5.10;;;;;;;18.52;84.47;100857.91;1632752;86;20958;-89
2022/07/05 05:32:46;;;;;;;5.60;5.08;;;;;;;18.56;84.55;100855.43;1632856;86;20946;-92
2022/07/05 05:35:14;;;;;;;9.13;5.03;;;;;;;18.61;84.60;100856.48;1632887;85;21511;-88
2022/07/05 05:37:51;;;;;;;6.37;4.95;;;;;;;18.65;84.68;100855.32;1633043;86;21126;-89
2022/07/05 05:40:19;;;;;;;7.22;5.20;;;;;;;18.67;84.71;100864.89;1632502;86;21007;-87
2022/07/05 05:42:47;;;;;;;9.58;5.03;;;;;;;18.72;84.81;100864.61;1632816;85;21053;-90
2022/07/05 05:45:15;;;;;;;7.97;4.67;;;;;;;18.77;84.75;100863.88;1632829;86;21066;-83
2022/07/05 05:47:50;;;;;;;5.90;4.95;;;;;;;18.82;84.63;100865.77;1632755;86;21026;-79
2022/07/05 05:50:23;;;;;;;8.20;5.00;;;;;;;18.85;84.61;100858.93;1632746;85;21118;-82
2022/07/05 05:52:52;;;;;;;8.18;5.33;;;;;;;18.89;84.94;100864.89;1632800;86;21033;-82
2022/07/05 05:55:20;;;;;;;7.08;5.67;;;;;;;18.90;84.80;100871.45;1633644;86;21069;-82
2022/07/05 05:57:48;;;;;;;7.83;5.83;;;;;;;18.92;84.66;100865.53;1632778;86;21027;-81
2022/07/05 06:00:16;;;;;;;6.78;5.08;;;;;;;18.93;84.66;100873.05;1632833;85;21506;-82
2022/07/05 06:02:44;;;;;;;12.20;6.22;;;;;;;18.95;84.40;100873.78;1632794;86;21142;-82
2022/07/05 06:05:12;;;;;;;8.68;6.22;;;;;;;18.98;84.68;100877.56;1636421;85;21089;-82
2022/07/05 06:07:55;;;;;;;6.92;5.70;;;;;;;19.00;84.72;100882.31;1634018;85;21061;-81
2022/07/05 06:10:26;;;;;;;9.45;6.28;;;;;;;19.03;84.71;100891.89;1641890;85;21027;-80
2022/07/05 06:12:56;;;;;;;10.58;6.55;;;;;;;19.05;84.90;100900.63;1638010;85;21042;-82
2022/07/05 06:15:23;;;;;;;7.97;6.22;;;;;;;19.06;84.96;100897.00;1613502;85;21150;-81
2022/07/05 06:17:50;;;;;;;7.40;6.65;;;;;;;19.08;84.93;100905.73;1651572;85;21494;-78
2022/07/05 06:20:21;;;;;;;8.50;6.37;;;;;;;19.10;84.96;100899.86;1647717;85;21453;-80
2022/07/05 06:22:49;;;;;;;8.05;5.95;;;;;;;19.10;84.96;100896.72;1651430;85;21120;-81
2022/07/05 06:25:17;;;;;;;11.12;6.47;;;;;;;19.10;84.97;100903.36;1647698;85;21116;-81
2022/07/05 06:27:48;;;;;;;6.92;6.28;;;;;;;19.09;84.74;100907.43;1653730;85;21127;-82
2022/07/05 06:30:20;;;;;;;8.75;6.40;;;;;;;19.07;85.02;100910.20;1650526;85;20954;-80
2022/07/05 06:32:50;;;;;;;9.93;6.60;;;;;;;19.09;85.21;100913.62;1662681;85;21058;-80
2022/07/05 06:35:19;;;;;;;8.30;6.80;;;;;;;19.08;84.88;100898.61;1662057;85;21047;-80
2022/07/05 06:37:54;;;;;;;8.28;6.25;;;;;;;19.09;85.05;100906.98;1651560;85;21464;-82
2022/07/05 06:40:27;;;;;;;7.50;6.72;;;;;;;19.10;85.04;100911.81;1646645;85;21996;-80
2022/07/05 06:42:57;;;;;;;8.65;6.72;;;;;;;19.10;84.97;100907.34;1651279;85;21532;-82
2022/07/05 06:45:26;;;;;;;9.18;6.87;;;;;;;19.11;84.97;100902.88;1645958;85;21024;-80
2022/07/05 06:48:06;;;;;;;10.23;6.17;;;;;;;19.15;84.99;100901.27;1651091;85;21540;-80
2022/07/05 06:50:38;;;;;;;9.13;6.62;;;;;;;19.18;84.72;100898.88;1633931;85;21048;-81
2022/07/05 06:53:06;;;;;;;8.53;6.15;;;;;;;19.19;84.50;100907.70;1644057;85;21475;-82
2022/07/05 06:55:34;;;;;;;8.53;6.50;;;;;;;19.22;84.41;100907.02;1642954;85;21020;-81
2022/07/05 06:58:04;;;;;;;10.90;6.60;;;;;;;19.26;84.39;100913.86;1665109;85;21041;-79
2022/07/05 07:00:32;;;;;;;9.15;6.37;;;;;;;19.32;84.55;100917.91;1649895;85;21013;-79
2022/07/05 07:03:00;;;;;;;11.55;6.47;;;;;;;19.38;84.71;100923.67;1643563;85;21096;-79
2022/07/05 07:05:27;;;;;;;7.87;6.50;;;;;;;19.46;84.77;100923.17;1642819;85;21129;-82
2022/07/05 07:10:40;;;;;;;12.43;7.58;;;;;;;19.55;84.75;100922.55;1641680;85;21126;-83
2022/07/05 07:13:07;;;;;;;9.25;6.55;;;;;;;19.63;84.59;100926.04;1644184;85;21093;-83
2022/07/05 07:15:34;;;;;;;9.85;6.70;;;;;;;19.66;84.57;100929.01;1655382;85;22055;-83
2022/07/05 07:18:01;;;;;;;10.90;6.83;;;;;;;19.70;84.11;100931.34;1646362;85;21128;-83
2022/07/05 07:20:29;;;;;;;7.22;6.00;;;;;;;19.71;84.21;100931.73;1645629;85;21503;-83
2022/07/05 07:23:01;;;;;;;9.70;6.15;;;;;;;19.75;84.09;100932.37;1643441;85;21524;-82
2022/07/05 07:25:29;;;;;;;9.73;6.62;;;;;;;19.81;83.85;100928.84;1650575;85;21098;-84
2022/07/05 07:27:56;;;;;;;6.92;5.72;;;;;;;19.83;83.81;100932.23;1648166;85;21066;-82
2022/07/05 07:30:27;;;;;;;9.03;6.00;;;;;;;19.86;83.62;100933.83;1639881;85;21969;-83
2022/07/05 07:32:57;;;;;;;9.03;5.65;;;;;;;19.90;83.16;100930.48;1658353;85;21031;-83
2022/07/05 07:35:25;;;;;;;11.15;6.20;;;;;;;19.92;83.11;100935.22;1658151;85;21067;-84
2022/07/05 07:37:52;;;;;;;8.90;6.00;;;;;;;19.95;82.98;100939.00;1649767;85;21093;-83
2022/07/05 07:40:20;;;;;;;8.70;5.40;;;;;;;19.99;82.92;100938.70;1671226;85;21039;-83
2022/07/05 07:42:47;;;;;;;7.53;5.65;;;;;;;20.03;82.45;100938.85;1656601;85;21121;-84
2022/07/05 07:45:14;;;;;;;6.78;5.47;;;;;;;20.10;82.57;100938.46;1662543;85;21555;-84
2022/07/05 07:47:42;;;;;;;6.40;5.53;;;;;;;20.18;82.42;100938.79;1652906;85;21051;-83
2022/07/05 07:50:09;;;;;;;7.37;5.30;;;;;;;20.19;81.75;100936.00;1666394;85;21022;-84
2022/07/05 07:52:38;;;;;;;6.25;5.50;;;;;;;20.23;81.83;100926.87;1668126;85;21054;-83
2022/07/05 07:55:07;;;;;;;7.60;5.40;;;;;;;20.32;81.91;100934.69;1634723;85;21112;-83
2022/07/05 07:57:35;;;;;;;8.58;5.67;;;;;;;20.39;81.45;100937.77;1664866;85;21042;-83
2022/07/05 08:00:04;;;;;;;39.65;6.60;;;;;;;20.43;81.27;100933.46;1664904;85;21462;-83
2022/07/05 08:02:33;;;;;;;21.00;6.15;;;;;;;20.48;81.27;100932.66;1665119;85;21472;-83
2022/07/05 08:05:01;;;;;;;8.63;5.47;;;;;;;20.55;81.17;100934.44;1660971;85;21396;-83
2022/07/05 08:07:28;;;;;;;19.95;5.50;;;;;;;20.61;80.82;100935.33;1666108;85;21871;-83
2022/07/05 08:09:56;;;;;;;24.35;6.05;;;;;;;20.70;80.92;100932.48;1663695;85;21061;-83
2022/07/05 08:12:23;;;;;;;12.95;5.47;;;;;;;20.81;80.93;100921.95;1659817;85;21062;-83
2022/07/05 08:14:50;;;;;;;15.88;5.58;;;;;;;20.91;80.45;100924.78;1641957;85;21023;-83
2022/07/05 08:17:20;;;;;;;11.57;5.15;;;;;;;21.03;80.54;100924.38;1641800;85;21296;-83
2022/07/05 08:22:32;;;;;;;8.90;4.47;;;;;;;21.23;79.95;100917.12;1641671;85;21424;-84
2022/07/05 08:24:59;;;;;;;5.72;4.33;;;;;;;21.36;80.02;100918.38;1641887;85;21035;-83
2022/07/05 08:27:26;;;;;;;7.15;5.20;;;;;;;21.47;79.78;100918.47;1641606;85;21086;-87
2022/07/05 08:29:53;;;;;;;7.80;4.00;;;;;;;21.56;79.28;100925.80;1641623;85;21091;-84
2022/07/05 08:32:21;;;;;;;5.75;4.35;;;;;;;21.61;79.03;100919.61;1641638;85;21070;-84
2022/07/05 08:34:49;;;;;;;14.15;4.75;;;;;;;21.68;78.60;100919.17;1641543;85;21527;-84
2022/07/05 08:37:16;;;;;;;7.00;4.40;;;;;;;21.73;78.36;100926.36;1641710;85;22429;-84
2022/07/05 08:39:43;;;;;;;158.40;138.18;;;;;;;21.79;78.39;100927.22;1641560;85;21054;-84
2022/07/05 08:42:11;;;;;;;22.37;8.60;;;;;;;21.85;78.06;100926.75;1641885;85;21516;-85
2022/07/05 08:44:42;;;;;;;26.42;7.55;;;;;;;21.92;77.80;100927.12;1657409;84;21199;-84
2022/07/05 08:47:11;;;;;;;8.95;4.55;;;;;;;22.03;77.82;100920.01;1668494;84;21099;-84
2022/07/05 08:49:42;;;;;;;5.78;4.17;;;;;;;22.07;77.01;100924.63;1663396;84;21550;-84
2022/07/05 08:52:12;;;;;;;10.20;4.83;;;;;;;22.06;76.57;100924.27;1663259;84;21081;-84
2022/07/05 08:54:40;;;;;;;6.42;3.98;;;;;;;22.12;76.57;100927.79;1663289;84;21123;-84
2022/07/05 08:57:07;;;;;;;6.30;4.30;;;;;;;22.17;76.56;100922.95;1663277;84;21553;-84
2022/07/05 08:59:34;;;;;;;7.05;4.35;;;;;;;22.25;76.59;100925.03;1668496;84;21087;-85
2022/07/05 09:02:03;;;;;;;6.97;4.83;;;;;;;22.32;76.75;100923.59;1668471;84;20997;-84
2022/07/05 09:04:34;;;;;;;6.50;4.62;;;;;;;22.39;76.60;100923.50;1663202;84;21076;-84
2022/07/05 09:07:09;;;;;;;6.33;5.10;;;;;;;22.43;76.31;100927.61;1668517;84;21031;-84
2022/07/05 09:09:34;;;;;;;8.80;4.72;;;;;;;22.47;76.28;100925.54;1662118;84;21122;-85
2022/07/05 09:12:02;;;;;;;12.63;4.78;;;;;;;22.50;75.76;100923.96;1663315;84;21068;-83
2022/07/05 09:14:29;;;;;;;5.45;4.70;;;;;;;22.53;75.45;100921.53;1663195;84;21133;-84
2022/07/05 09:16:57;;;;;;;7.15;4.45;;;;;;;22.61;75.73;100917.28;1668623;84;20936;-84
2022/07/05 09:19:24;;;;;;;6.20;4.75;;;;;;;22.77;75.50;100911.56;1663169;84;21048;-84
2022/07/05 09:22:05;;;;;;;6.00;4.10;;;;;;;22.89;75.06;100915.95;1663265;84;21135;-84
2022/07/05 09:24:34;;;;;;;8.93;4.37;;;;;;;22.88;74.62;100914.22;1662984;84;21068;-84
2022/07/05 09:27:05;;;;;;;7.87;3.58;;;;;;;22.90;74.41;100913.62;1668256;84;21074;-84
2022/07/05 09:29:32;;;;;;;5.75;3.62;;;;;;;22.88;74.09;100920.91;1657480;84;21072;-84
2022/07/05 09:32:00;;;;;;;5.10;3.65;;;;;;;22.87;73.51;100919.22;1663170;84;21041;-84
2022/07/05 09:34:30;;;;;;;7.15;3.80;;;;;;;22.84;73.28;100916.80;1671689;84;21158;-84
2022/07/05 09:37:03;;;;;;;4.42;3.60;;;;;;;22.85;73.00;100917.64;1670303;84;21021;-83
2022/07/05 09:39:37;;;;;;;5.55;3.40;;;;;;;22.85;72.62;100921.65;1686014;84;20990;-84
2022/07/05 09:42:23;;;;;;;6.90;3.65;;;;;;;22.82;72.25;100924.08;1692472;84;21018;-83
2022/07/05 09:44:57;;;;;;;7.72;3.87;;;;;;;22.85;72.49;100918.48;1622947;86;21024;-84
2022/07/05 09:47:29;;;;;;;7.28;3.92;;;;;;;22.92;72.55;100922.88;1623097;86;21149;-84
2022/07/05 09:50:05;;;;;;;5.05;4.20;;;;;;;22.96;72.32;100924.34;1635520;86;21056;-84
2022/07/05 09:52:38;;;;;;;5.65;3.67;;;;;;;22.97;72.43;100922.02;1635287;86;21101;-84
2022/07/05 09:55:19;;;;;;;6.10;3.40;;;;;;;22.99;72.25;100924.09;1635474;86;21482;-84
2022/07/05 09:57:50;;;;;;;5.80;3.25;;;;;;;23.01;72.15;100921.30;1635807;86;21302;-84
2022/07/05 10:00:20;;;;;;;5.22;3.33;;;;;;;23.07;71.86;100925.66;1636779;86;21113;-84
2022/07/05 10:02:51;;;;;;;5.12;3.02;;;;;;;23.15;71.47;100923.20;1635270;86;20982;-84
2022/07/05 10:05:24;;;;;;;5.45;2.83;;;;;;;23.19;70.61;100920.27;1633742;86;21025;-90
2022/07/05 10:07:54;;;;;;;4.60;3.40;;;;;;;23.28;71.09;100911.48;1635516;86;21549;-87
2022/07/05 10:10:24;;;;;;;6.33;3.87;;;;;;;23.45;71.10;100910.12;1635664;86;26890;-83
2022/07/05 10:12:55;;;;;;;5.15;3.67;;;;;;;23.55;70.92;100907.86;1635374;86;21219;-91
2022/07/05 10:15:27;;;;;;;5.30;3.47;;;;;;;23.56;70.28;100909.58;1632838;86;21059;-81
2022/07/05 10:18:11;;;;;;;7.05;3.98;;;;;;;23.56;70.08;100908.73;1632501;86;21078;-84
2022/07/05 10:20:44;;;;;;;6.62;3.65;;;;;;;23.70;70.59;100910.25;1632818;86;21130;-80
2022/07/05 10:23:19;;;;;;;4.45;3.37;;;;;;;23.85;70.09;100904.11;1632746;86;21051;-81
2022/07/05 10:25:49;;;;;;;3.95;3.50;;;;;;;24.00;69.91;100907.67;1639049;86;21967;-83
2022/07/05 10:28:19;;;;;;;4.50;3.35;;;;;;;24.12;69.20;100907.60;1655330;85;21098;-83
2022/07/05 10:30:51;;;;;;;4.42;3.17;;;;;;;24.19;68.58;100904.27;1651582;85;21081;-82
2022/07/05 10:33:24;;;;;;;3.62;3.00;;;;;;;24.25;67.98;100904.23;1642814;85;21531;-84
2022/07/05 10:35:49;;;;;;;3.45;3.12;;;;;;;24.41;68.74;100904.56;1637524;86;21553;-83
2022/07/05 10:38:18;;;;;;;;;;;;;;;24.66;68.21;100896.58;1633937;86;21205;-84
2022/07/05 10:40:49;;;;;;;7.40;3.25;;;;;;;24.81;67.27;100898.41;1649576;86;20176;-84
2022/07/05 10:43:17;;;;;;;6.20;2.95;;;;;;;25.03;67.28;100893.81;1650469;86;21015;-80
2022/07/05 10:45:48;;;;;;;4.33;2.58;;;;;;;25.28;66.82;100893.30;1612395;87;20930;-83
2022/07/05 10:48:28;;;;;;;4.37;2.80;;;;;;;25.30;66.18;100879.73;1657162;85;21040;-82
2022/07/05 10:50:59;;;;;;;3.67;2.17;;;;;;;25.46;65.96;100883.20;1643663;85;27672;-83
2022/07/05 10:53:37;;;;;;;3.75;2.58;;;;;;;25.64;65.63;100879.32;1657495;85;21520;-82
2022/07/05 10:56:11;;;;;;;5.47;2.60;;;;;;;26.04;65.47;100885.84;1644527;84;21059;-82
2022/07/05 10:58:48;;;;;;;2.40;2.17;;;;;;;26.38;64.75;100879.45;1659138;84;21102;-84
2022/07/05 11:01:28;;;;;;;2.95;2.25;;;;;;;26.70;64.32;100874.16;1652748;85;21537;-82
2022/07/05 11:04:02;;;;;;;3.60;1.77;;;;;;;26.93;63.26;100875.41;1657205;84;21089;-82
2022/07/05 11:06:46;;;;;;;2.15;1.62;;;;;;;27.12;62.37;100863.67;1653444;85;21480;-83
2022/07/05 11:09:19;;;;;;;4.12;1.80;;;;;;;27.43;62.55;100867.86;1654998;84;21056;-82
2022/07/05 11:12:06;;;;;;;4.25;1.60;;;;;;;27.71;61.71;100861.84;1656200;85;21107;-83
2022/07/05 11:14:37;;;;;;;1.80;1.70;;;;;;;27.95;60.35;100865.26;1626712;84;21066;-81
2022/07/05 11:17:22;;;;;;;4.62;2.12;;;;;;;28.01;59.49;100862.77;1641518;84;21138;-82
2022/07/05 11:20:15;;;;;;;2.45;1.80;;;;;;;28.15;58.91;100862.67;1641099;84;21026;-82
2022/07/05 11:23:04;;;;;;;5.28;2.30;;;;;;;28.37;58.69;100867.17;1641469;84;21526;-82
2022/07/05 11:25:36;;;;;;;2.27;1.50;;;;;;;28.66;58.14;100872.23;1641765;85;21038;-82
2022/07/05 11:28:27;;;;;;;2.15;1.60;;;;;;;28.90;56.90;100866.91;1641414;85;21123;-82
2022/07/05 11:30:54;;;;;;;3.75;1.87;;;;;;;28.97;56.02;100862.20;1640143;85;21342;-84
2022/07/05 11:33:43;;;;;;;2.12;1.50;;;;;;;28.99;55.40;100856.97;1641496;85;21595;-82
2022/07/05 11:36:28;;;;;;;1.70;1.30;;;;;;;29.18;55.21;100854.48;1641543;84;21024;-82
2022/07/05 11:39:18;;;;;;;4.47;1.87;;;;;;;29.45;54.33;100855.17;1641442;85;21027;-82
2022/07/05 11:41:49;;;;;;;2.67;1.80;;;;;;;29.55;54.31;100849.11;1641417;85;21054;-82